createdAt,value
2022-08-30T00:01:03.741Z,101793.34
2022-08-30T00:03:34.129Z,101801.09
2022-08-30T00:06:00.948Z,101796.03
2022-08-30T00:08:27.522Z,101791.69
2022-08-30T00:10:54.586Z,101789.88
2022-08-30T00:13:23.103Z,101795.63
2022-08-30T00:15:50.306Z,101787.81
2022-08-30T00:18:18.769Z,101784.19
2022-08-30T00:20:46.991Z,101783.91
2022-08-30T00:23:14.357Z,101783.09
2022-08-30T00:25:41.958Z,101775.53
2022-08-30T00:28:09.764Z,101780.78
2022-08-30T00:30:36.939Z,101782.78
2022-08-30T00:33:04.734Z,101790.34
2022-08-30T00:35:31.697Z,101791.88
2022-08-30T00:37:58.466Z,101790.72
2022-08-30T00:40:27.177Z,101796.06
2022-08-30T00:42:59.331Z,101798.78
2022-08-30T00:45:31.193Z,101804.59
2022-08-30T00:47:58.569Z,101795.94
2022-08-30T00:50:30.858Z,101798.09
2022-08-30T00:53:00.647Z,101802.22
2022-08-30T00:55:29.172Z,101812.78
2022-08-30T00:57:59.894Z,101807.69
2022-08-30T01:00:29.081Z,101807.13
2022-08-30T01:02:56.156Z,101810.03
2022-08-30T01:05:23.965Z,101807.75
2022-08-30T01:07:51.080Z,101812.28
2022-08-30T01:10:18.314Z,101807.69
2022-08-30T01:12:46.171Z,101810.06
2022-08-30T01:15:15.061Z,101810.41
2022-08-30T01:17:47.568Z,101812.72
2022-08-30T01:20:22.768Z,101812.63
2022-08-30T01:22:49.339Z,101818.53
2022-08-30T01:25:23.339Z,101822.66
2022-08-30T01:28:03.965Z,101826.25
2022-08-30T01:30:32.465Z,101822.47
2022-08-30T01:33:02.978Z,101827.44
2022-08-30T01:35:35.090Z,101823.69
2022-08-30T01:38:02.054Z,101831.69
2022-08-30T01:40:28.732Z,101822.16
2022-08-30T01:42:55.455Z,101823.09
2022-08-30T01:45:22.325Z,101830.59
2022-08-30T01:47:49.575Z,101823.44
2022-08-30T01:50:16.726Z,101824.50
2022-08-30T01:52:43.404Z,101818.66
2022-08-30T01:55:10.778Z,101815.84
2022-08-30T01:57:37.597Z,101816.28
2022-08-30T02:00:07.826Z,101818.03
2022-08-30T02:02:38.361Z,101812.06
2022-08-30T02:05:06.411Z,101817.50
2022-08-30T02:07:33.069Z,101811.81
2022-08-30T02:09:59.704Z,101810.03
2022-08-30T02:12:26.570Z,101807.75
2022-08-30T02:14:53.398Z,101804.31
2022-08-30T02:17:20.095Z,101805.94
2022-08-30T02:19:46.945Z,101807.47
2022-08-30T02:22:13.629Z,101807.91
2022-08-30T02:24:40.505Z,101809.97
2022-08-30T02:27:07.609Z,101813.13
2022-08-30T02:29:34.331Z,101807.13
2022-08-30T02:32:01.062Z,101807.44
2022-08-30T02:34:27.697Z,101806.38
2022-08-30T02:36:54.375Z,101811.53
2022-08-30T02:39:21.362Z,101808.94
2022-08-30T02:41:48.393Z,101810.63
2022-08-30T02:44:15.396Z,101801.47
2022-08-30T02:46:42.241Z,101805.41
2022-08-30T02:49:30.336Z,101814.06
2022-08-30T02:51:55.646Z,101812.03
2022-08-30T02:54:22.303Z,101815.34
2022-08-30T02:56:49.977Z,101814.13
2022-08-30T02:59:20.449Z,101807.63
2022-08-30T03:01:47.098Z,101810.34
2022-08-30T03:04:14.983Z,101814.66
2022-08-30T03:06:41.644Z,101815.16
2022-08-30T03:09:08.317Z,101818.56
2022-08-30T03:11:35.238Z,101812.59
2022-08-30T03:14:01.951Z,101805.28
2022-08-30T03:16:28.791Z,101816.13
2022-08-30T03:18:55.697Z,101813.03
2022-08-30T03:21:22.484Z,101815.34
2022-08-30T03:23:49.214Z,101807.22
2022-08-30T03:26:17.143Z,101818.47
2022-08-30T03:28:43.976Z,101815.00
2022-08-30T03:31:11.089Z,101819.25
2022-08-30T03:33:40.387Z,101817.63
2022-08-30T03:36:09.056Z,101820.38
2022-08-30T03:38:36.051Z,101812.69
2022-08-30T03:41:02.806Z,101819.25
2022-08-30T03:43:30.593Z,101822.00
2022-08-30T03:45:58.158Z,101815.69
2022-08-30T03:48:26.179Z,101814.84
2022-08-30T03:50:53.370Z,101820.09
2022-08-30T03:53:21.129Z,101818.13
2022-08-30T03:55:47.777Z,101816.53
2022-08-30T03:58:19.188Z,101811.00
2022-08-30T04:00:46.925Z,101814.63
2022-08-30T04:03:14.042Z,101815.53
2022-08-30T04:05:40.898Z,101815.50
2022-08-30T04:08:07.664Z,101822.16
2022-08-30T04:10:35.215Z,101812.22
2022-08-30T04:13:02.075Z,101815.03
2022-08-30T04:15:28.848Z,101812.56
2022-08-30T04:17:55.458Z,101805.78
2022-08-30T04:20:22.300Z,101815.06
2022-08-30T04:22:50.136Z,101814.63
2022-08-30T04:25:17.667Z,101822.31
2022-08-30T04:27:46.131Z,101824.53
2022-08-30T04:30:15.131Z,101819.34
2022-08-30T04:32:42.496Z,101814.81
2022-08-30T04:35:09.823Z,101818.81
2022-08-30T04:37:37.799Z,101819.91
2022-08-30T04:40:05.811Z,101815.09
2022-08-30T04:42:34.992Z,101818.41
2022-08-30T04:45:05.504Z,101819.69
2022-08-30T04:47:32.179Z,101818.88
2022-08-30T04:49:58.931Z,101821.19
2022-08-30T04:52:25.636Z,101832.72
2022-08-30T04:54:57.292Z,101829.59
2022-08-30T04:57:25.103Z,101837.34
2022-08-30T04:59:51.772Z,101834.09
2022-08-30T05:02:18.634Z,101832.47
2022-08-30T05:05:03.736Z,101841.44
2022-08-30T05:07:32.382Z,101846.38
2022-08-30T05:09:59.569Z,101842.19
2022-08-30T05:12:26.453Z,101847.06
2022-08-30T05:14:53.211Z,101843.47
2022-08-30T05:17:20.136Z,101847.22
2022-08-30T05:19:46.891Z,101849.09
2022-08-30T05:22:13.559Z,101852.28
2022-08-30T05:24:40.217Z,101847.00
2022-08-30T05:27:07.023Z,101849.44
2022-08-30T05:29:33.899Z,101848.44
2022-08-30T05:32:00.634Z,101853.13
2022-08-30T05:34:30.409Z,101851.72
2022-08-30T05:36:57.167Z,101846.47
2022-08-30T05:39:23.825Z,101857.44
2022-08-30T05:41:50.528Z,101853.91
2022-08-30T05:44:25.690Z,101853.88
2022-08-30T05:46:52.743Z,101847.69
2022-08-30T05:49:19.396Z,101849.63
2022-08-30T05:51:46.008Z,101858.75
2022-08-30T05:54:14.412Z,101853.94
2022-08-30T05:56:44.401Z,101856.50
2022-08-30T05:59:11.811Z,101861.47
2022-08-30T06:01:41.559Z,101864.13
2022-08-30T06:04:10.717Z,101857.06
2022-08-30T06:06:39.652Z,101852.00
2022-08-30T06:09:07.667Z,101858.00
2022-08-30T06:11:35.373Z,101854.94
2022-08-30T06:14:03.224Z,101855.19
2022-08-30T06:16:30.360Z,101859.50
2022-08-30T06:18:58.559Z,101859.50
2022-08-30T06:21:37.293Z,101862.16
2022-08-30T06:24:06.675Z,101855.94
2022-08-30T06:26:38.301Z,101854.44
2022-08-30T06:29:05.083Z,101861.06
2022-08-30T06:31:33.373Z,101860.00
2022-08-30T06:34:00.257Z,101869.44
2022-08-30T06:36:27.850Z,101867.44
2022-08-30T06:38:56.016Z,101869.25
2022-08-30T06:41:28.521Z,101865.75
2022-08-30T06:43:56.045Z,101876.97
2022-08-30T06:46:32.586Z,101872.84
2022-08-30T06:48:59.817Z,101877.34
2022-08-30T06:51:31.499Z,101880.22
2022-08-30T06:53:59.325Z,101876.97
2022-08-30T06:56:27.571Z,101878.28
2022-08-30T06:58:55.112Z,101873.56
2022-08-30T07:01:24.458Z,101878.13
2022-08-30T07:03:51.375Z,101874.53
2022-08-30T07:06:19.494Z,101881.22
2022-08-30T07:08:46.964Z,101878.78
2022-08-30T07:11:14.707Z,101881.22
2022-08-30T07:13:41.391Z,101888.13
2022-08-30T07:16:13.579Z,101873.34
2022-08-30T07:18:55.948Z,101887.00
2022-08-30T07:21:28.852Z,101883.69
2022-08-30T07:23:57.646Z,101883.72
2022-08-30T07:26:35.090Z,101891.94
2022-08-30T07:29:02.609Z,101894.00
2022-08-30T07:31:30.309Z,101883.34
2022-08-30T07:33:57.285Z,101889.97
2022-08-30T07:36:24.633Z,101891.72
2022-08-30T07:38:52.476Z,101897.03
2022-08-30T07:41:25.895Z,101896.47
2022-08-30T07:43:53.603Z,101891.81
2022-08-30T07:46:21.083Z,101897.56
2022-08-30T07:48:48.319Z,101887.31
2022-08-30T07:51:18.257Z,101892.97
2022-08-30T07:53:45.081Z,101906.81
2022-08-30T07:56:12.039Z,101906.63
2022-08-30T07:58:39.734Z,101905.31
2022-08-30T08:01:09.399Z,101900.09
2022-08-30T08:03:37.675Z,101895.50
2022-08-30T08:06:06.155Z,101904.66
2022-08-30T08:08:33.687Z,101916.53
2022-08-30T08:11:07.137Z,101910.16
2022-08-30T08:13:45.254Z,101906.97
2022-08-30T08:16:29.740Z,101917.09
2022-08-30T08:18:57.648Z,101908.91
2022-08-30T08:21:26.256Z,101910.72
2022-08-30T08:23:53.233Z,101913.25
2022-08-30T08:26:20.678Z,101920.56
2022-08-30T08:28:47.783Z,101915.34
2022-08-30T08:31:17.645Z,101926.72
2022-08-30T08:33:44.489Z,101920.91
2022-08-30T08:36:11.137Z,101939.38
2022-08-30T08:38:37.917Z,101932.31
2022-08-30T08:41:10.673Z,101933.75
2022-08-30T08:43:37.808Z,101938.44
2022-08-30T08:46:04.508Z,101931.84
2022-08-30T08:48:45.653Z,101927.41
2022-08-30T08:51:45.867Z,101937.38
2022-08-30T08:54:15.330Z,101941.94
2022-08-30T08:56:42.060Z,101931.44
2022-08-30T08:59:11.662Z,101931.69
2022-08-30T09:01:39.170Z,101935.25
2022-08-30T09:04:15.024Z,101936.25
2022-08-30T09:06:56.972Z,101927.50
2022-08-30T09:09:29.599Z,101942.50
2022-08-30T09:11:56.226Z,101939.50
2022-08-30T09:14:30.303Z,101937.22
2022-08-30T09:17:04.313Z,101948.16
2022-08-30T09:19:40.076Z,101927.41
2022-08-30T09:22:07.087Z,101939.91
2022-08-30T09:25:00.883Z,101936.88
2022-08-30T09:27:35.343Z,101930.47
2022-08-30T09:30:19.541Z,101938.03
2022-08-30T09:33:03.734Z,101936.78
2022-08-30T09:35:46.614Z,101938.84
2022-08-30T09:38:24.075Z,101930.31
2022-08-30T09:40:53.522Z,101942.50
2022-08-30T09:43:23.267Z,101933.56
2022-08-30T09:46:01.693Z,101929.34
2022-08-30T09:48:46.135Z,101937.41
2022-08-30T09:51:13.285Z,101933.22
2022-08-30T09:54:01.223Z,101933.81
2022-08-30T09:56:43.524Z,101930.91
2022-08-30T09:59:19.501Z,101931.03
2022-08-30T10:02:00.131Z,101931.22
2022-08-30T10:04:53.082Z,101927.69
2022-08-30T10:07:29.255Z,101939.09
2022-08-30T10:10:08.109Z,101942.13
2022-08-30T10:13:11.581Z,101940.81
2022-08-30T10:16:04.984Z,101942.97
2022-08-30T10:18:43.152Z,101941.53
2022-08-30T10:21:19.255Z,101946.69
2022-08-30T10:23:50.265Z,101949.66
2022-08-30T10:26:32.006Z,101942.16
2022-08-30T10:29:24.923Z,101953.09
2022-08-30T10:31:58.364Z,101948.44
2022-08-30T10:34:45.380Z,101951.44
2022-08-30T10:37:16.936Z,101952.69
2022-08-30T10:39:48.613Z,101954.47
2022-08-30T10:42:21.429Z,101953.34
2022-08-30T10:44:55.445Z,101954.13
2022-08-30T10:47:37.121Z,101954.31
2022-08-30T10:50:21.640Z,101953.91
2022-08-30T10:53:12.291Z,101947.75
2022-08-30T10:55:58.505Z,101956.28
2022-08-30T10:58:25.404Z,101940.28
2022-08-30T11:01:33.343Z,101952.72
2022-08-30T11:04:24.271Z,101948.72
2022-08-30T11:07:10.187Z,101957.75
2022-08-30T11:10:17.712Z,101948.44
2022-08-30T11:12:56.333Z,101955.84
2022-08-30T11:15:31.492Z,101942.66
2022-08-30T11:18:10.306Z,101948.16
2022-08-30T11:20:47.442Z,101944.78
2022-08-30T11:23:34.500Z,101945.25
2022-08-30T11:26:20.683Z,101938.16
2022-08-30T11:28:47.913Z,101940.25
2022-08-30T11:34:02.098Z,101938.78
2022-08-30T11:36:28.702Z,101947.41
2022-08-30T11:39:10.855Z,101942.84
2022-08-30T11:41:42.470Z,101929.50
2022-08-30T11:44:14.892Z,101927.97
2022-08-30T11:46:42.359Z,101923.88
2022-08-30T11:49:15.038Z,101922.41
2022-08-30T11:55:11.015Z,101923.97
2022-08-30T11:57:49.864Z,101932.09
2022-08-30T12:00:35.126Z,101919.94
2022-08-30T12:03:24.544Z,101932.06
2022-08-30T12:05:54.687Z,101929.31
2022-08-30T12:08:36.290Z,101921.63
2022-08-30T12:11:06.727Z,101935.69
2022-08-30T12:13:39.130Z,101938.63
2022-08-30T12:16:13.883Z,101920.44
2022-08-30T12:18:50.297Z,101922.38
2022-08-30T12:21:21.448Z,101929.34
2022-08-30T12:24:14.656Z,101916.53
2022-08-30T12:26:45.633Z,101921.94
2022-08-30T12:29:24.784Z,101908.53
2022-08-30T12:31:54.293Z,101917.66
2022-08-30T12:34:32.217Z,101912.78
2022-08-30T12:37:19.693Z,101913.72
2022-08-30T12:39:46.845Z,101915.59
2022-08-30T12:42:29.596Z,101908.91
2022-08-30T12:44:58.568Z,101915.72
2022-08-30T12:47:34.219Z,101901.56
2022-08-30T12:50:02.235Z,101896.25
2022-08-30T12:52:40.100Z,101903.78
2022-08-30T12:55:20.809Z,101905.41
2022-08-30T12:58:00.832Z,101898.72
2022-08-30T13:00:33.125Z,101895.81
2022-08-30T13:03:35.149Z,101897.38
2022-08-30T13:06:02.830Z,101902.94
2022-08-30T13:08:38.304Z,101898.25
2022-08-30T13:11:10.133Z,101900.97
2022-08-30T13:13:39.702Z,101894.72
2022-08-30T13:16:29.302Z,101900.88
2022-08-30T13:19:25.281Z,101904.13
2022-08-30T13:21:54.246Z,101896.91
2022-08-30T13:24:25.206Z,101898.81
2022-08-30T13:26:54.395Z,101906.13
2022-08-30T13:29:26.123Z,101901.28
2022-08-30T13:31:54.229Z,101908.22
2022-08-30T13:34:22.662Z,101901.06
2022-08-30T13:36:58.074Z,101899.06
2022-08-30T13:39:25.864Z,101903.78
2022-08-30T13:41:53.394Z,101894.44
2022-08-30T13:44:20.603Z,101891.91
2022-08-30T13:46:54.645Z,101892.31
2022-08-30T13:49:46.361Z,101888.66
2022-08-30T13:52:21.098Z,101891.53
2022-08-30T13:54:56.997Z,101891.81
2022-08-30T14:00:19.107Z,101888.41
2022-08-30T14:02:54.172Z,101895.22
2022-08-30T14:05:48.303Z,101877.00
2022-08-30T14:11:06.528Z,101875.31
2022-08-30T14:13:33.934Z,101881.81
2022-08-30T14:18:51.073Z,101883.69
2022-08-30T14:21:17.882Z,101880.16
2022-08-30T14:23:48.327Z,101884.53
2022-08-30T14:26:22.842Z,101879.25
2022-08-30T14:28:51.473Z,101884.78
2022-08-30T14:31:19.900Z,101884.63
2022-08-30T14:33:47.492Z,101888.44
2022-08-30T14:36:15.462Z,101882.34
2022-08-30T14:38:44.852Z,101876.19
2022-08-30T14:41:11.815Z,101879.94
2022-08-30T14:43:40.432Z,101883.44
2022-08-30T14:46:08.288Z,101880.03
2022-08-30T14:48:36.522Z,101879.22
2022-08-30T14:51:11.058Z,101877.75
2022-08-30T14:53:37.944Z,101881.88
2022-08-30T14:56:14.450Z,101875.72
2022-08-30T14:58:41.630Z,101887.78
2022-08-30T15:01:10.489Z,101886.81
2022-08-30T15:03:40.875Z,101876.78
2022-08-30T15:06:09.095Z,101887.41
2022-08-30T15:08:36.868Z,101889.66
2022-08-30T15:11:09.554Z,101885.16
2022-08-30T15:13:36.820Z,101890.97
2022-08-30T15:16:20.468Z,101889.13
2022-08-30T15:18:48.288Z,101888.50
2022-08-30T15:21:21.377Z,101886.66
2022-08-30T15:23:49.087Z,101899.28
2022-08-30T15:26:15.728Z,101885.25
2022-08-30T15:28:42.422Z,101888.41
2022-08-30T15:31:09.663Z,101898.22
2022-08-30T15:33:37.970Z,101888.41
2022-08-30T15:36:05.872Z,101892.25
2022-08-30T15:38:33.025Z,101883.81
2022-08-30T15:41:04.038Z,101890.09
2022-08-30T15:43:31.568Z,101880.91
2022-08-30T15:46:29.533Z,101892.31
2022-08-30T15:49:01.006Z,101888.19
2022-08-30T15:51:27.734Z,101890.22
2022-08-30T15:53:54.422Z,101884.41
2022-08-30T15:56:21.127Z,101895.53
2022-08-30T15:58:48.468Z,101884.47
2022-08-30T16:01:16.195Z,101883.19
2022-08-30T16:03:46.742Z,101879.19
2022-08-30T16:06:16.577Z,101883.31
2022-08-30T16:08:44.354Z,101886.47
2022-08-30T16:11:16.262Z,101885.84
2022-08-30T16:13:46.868Z,101886.78
2022-08-30T16:16:16.539Z,101878.91
2022-08-30T16:18:43.487Z,101873.25
2022-08-30T16:21:11.818Z,101868.88
2022-08-30T16:23:40.040Z,101870.50
2022-08-30T16:26:14.586Z,101872.06
2022-08-30T16:28:44.118Z,101871.69
2022-08-30T16:31:11.033Z,101881.84
2022-08-30T16:33:43.057Z,101881.81
2022-08-30T16:36:11.827Z,101876.72
2022-08-30T16:38:39.992Z,101881.44
2022-08-30T16:41:09.886Z,101885.06
2022-08-30T16:43:38.908Z,101879.91
2022-08-30T16:46:09.336Z,101876.41
2022-08-30T16:48:38.383Z,101876.56
2022-08-30T16:51:13.451Z,101873.31
2022-08-30T16:53:40.942Z,101872.00
2022-08-30T16:56:17.249Z,101874.03
2022-08-30T16:58:45.126Z,101883.81
2022-08-30T17:01:12.732Z,101878.47
2022-08-30T17:03:40.253Z,101879.19
2022-08-30T17:06:07.891Z,101875.66
2022-08-30T17:08:34.784Z,101871.78
2022-08-30T17:11:01.536Z,101866.06
2022-08-30T17:13:28.941Z,101876.94
2022-08-30T17:15:56.795Z,101880.94
2022-08-30T17:18:25.021Z,101875.09
2022-08-30T17:20:51.758Z,101887.91
2022-08-30T17:23:19.100Z,101878.88
2022-08-30T17:25:45.911Z,101883.41
2022-08-30T17:28:13.494Z,101892.66
2022-08-30T17:30:40.248Z,101892.50
2022-08-30T17:33:08.258Z,101898.63
2022-08-30T17:35:35.200Z,101897.63
2022-08-30T17:38:02.895Z,101892.66
2022-08-30T17:40:29.880Z,101899.25
2022-08-30T17:42:56.585Z,101895.75
2022-08-30T17:45:23.451Z,101897.84
2022-08-30T17:47:50.184Z,101908.47
2022-08-30T17:50:19.480Z,101899.03
2022-08-30T17:52:46.448Z,101913.03
2022-08-30T17:55:13.690Z,101908.78
2022-08-30T17:57:42.016Z,101907.78
2022-08-30T18:00:15.757Z,101917.50
2022-08-30T18:02:42.865Z,101914.69
2022-08-30T18:05:10.125Z,101923.19
2022-08-30T18:07:38.703Z,101921.97
2022-08-30T18:10:05.929Z,101917.44
2022-08-30T18:12:33.697Z,101927.19
2022-08-30T18:15:01.510Z,101922.50
2022-08-30T18:17:39.110Z,101925.06
2022-08-30T18:20:08.043Z,101926.84
2022-08-30T18:22:34.717Z,101931.81
2022-08-30T18:25:03.246Z,101926.59
2022-08-30T18:27:29.850Z,101931.50
2022-08-30T18:29:56.528Z,101935.22
2022-08-30T18:32:23.466Z,101935.69
2022-08-30T18:34:59.762Z,101942.63
2022-08-30T18:37:26.525Z,101947.81
2022-08-30T18:39:53.518Z,101942.41
2022-08-30T18:42:20.188Z,101943.06
2022-08-30T18:44:47.571Z,101946.19
2022-08-30T18:47:14.209Z,101947.97
2022-08-30T18:49:41.068Z,101947.78
2022-08-30T18:52:09.966Z,101956.84
2022-08-30T18:54:39.694Z,101956.63
2022-08-30T18:57:07.662Z,101959.13
2022-08-30T18:59:37.068Z,101959.75
2022-08-30T19:02:09.410Z,101961.53
2022-08-30T19:04:37.528Z,101962.06
2022-08-30T19:07:09.822Z,101960.78
2022-08-30T19:09:37.328Z,101962.31
2022-08-30T19:12:07.787Z,101961.91
2022-08-30T19:14:52.704Z,101955.22
2022-08-30T19:17:19.721Z,101968.28
2022-08-30T19:19:49.998Z,101967.28
2022-08-30T19:22:21.944Z,101960.50
2022-08-30T19:24:50.237Z,101972.44
2022-08-30T19:27:21.500Z,101973.28
2022-08-30T19:30:14.286Z,101969.69
2022-08-30T19:32:44.320Z,101968.94
2022-08-30T19:35:14.269Z,101964.56
2022-08-30T19:37:46.664Z,101960.47
2022-08-30T19:40:16.586Z,101965.03
2022-08-30T19:42:46.151Z,101968.28
2022-08-30T19:45:15.369Z,101965.66
2022-08-30T19:47:41.989Z,101977.47
2022-08-30T19:50:08.812Z,101980.16
2022-08-30T19:52:37.023Z,101978.16
2022-08-30T19:55:06.962Z,101984.03
2022-08-30T19:57:37.607Z,101980.38
2022-08-30T20:00:11.494Z,101986.13
2022-08-30T20:02:41.797Z,101987.69
2022-08-30T20:05:10.100Z,101979.06
2022-08-30T20:07:40.047Z,101982.66
2022-08-30T20:10:11.071Z,101980.94
2022-08-30T20:12:39.875Z,101978.13
2022-08-30T20:15:14.754Z,101971.59
2022-08-30T20:18:03.324Z,101973.88
2022-08-30T20:20:33.527Z,101968.84
2022-08-30T20:23:03.104Z,101973.41
2022-08-30T20:25:30.785Z,101972.47
2022-08-30T20:27:57.460Z,101974.97
2022-08-30T20:30:24.096Z,101965.47
2022-08-30T20:32:52.599Z,101968.09
2022-08-30T20:35:19.299Z,101967.84
2022-08-30T20:37:46.639Z,101966.41
2022-08-30T20:40:16.069Z,101974.69
2022-08-30T20:42:46.381Z,101967.47
2022-08-30T20:45:16.407Z,101967.75
2022-08-30T20:47:43.774Z,101972.09
2022-08-30T20:50:16.102Z,101974.44
2022-08-30T20:52:43.210Z,101971.78
2022-08-30T20:55:10.828Z,101972.38
2022-08-30T20:57:38.713Z,101964.19
2022-08-30T21:00:09.214Z,101970.81
2022-08-30T21:02:38.458Z,101976.59
2022-08-30T21:05:15.562Z,101969.59
2022-08-30T21:07:43.609Z,101974.13
2022-08-30T21:10:13.493Z,101975.38
2022-08-30T21:12:40.170Z,101974.22
2022-08-30T21:15:27.343Z,101971.69
2022-08-30T21:17:54.346Z,101972.59
2022-08-30T21:20:21.103Z,101982.81
2022-08-30T21:22:47.771Z,101984.50
2022-08-30T21:25:14.383Z,101982.94
2022-08-30T21:27:43.680Z,101978.97
2022-08-30T21:30:12.486Z,101980.06
2022-08-30T21:32:40.543Z,101990.84
2022-08-30T21:35:27.142Z,101987.03
2022-08-30T21:37:54.105Z,101990.00
2022-08-30T21:40:21.190Z,101987.06
2022-08-30T21:42:48.080Z,101987.69
2022-08-30T21:45:16.025Z,101988.91
2022-08-30T21:47:42.809Z,101990.88
2022-08-30T21:50:10.169Z,101984.22
2022-08-30T21:52:36.924Z,101993.84
2022-08-30T21:55:04.602Z,102000.88
2022-08-30T21:57:32.466Z,102000.31
2022-08-30T21:59:59.101Z,101998.69
2022-08-30T22:02:25.897Z,102010.56
2022-08-30T22:04:52.683Z,102011.13
2022-08-30T22:07:19.322Z,102008.28
2022-08-30T22:09:46.058Z,102013.69
2022-08-30T22:12:12.684Z,102013.94
2022-08-30T22:14:39.495Z,102014.47
2022-08-30T22:17:06.215Z,102018.34
2022-08-30T22:19:33.711Z,102025.56
2022-08-30T22:22:01.594Z,102030.75
2022-08-30T22:24:32.384Z,102040.75
2022-08-30T22:27:02.447Z,102040.19
2022-08-30T22:29:30.103Z,102035.22
2022-08-30T22:31:56.877Z,102030.00
2022-08-30T22:34:23.722Z,102031.28
2022-08-30T22:36:50.414Z,102029.41
2022-08-30T22:39:18.181Z,102027.72
2022-08-30T22:41:45.196Z,102032.78
2022-08-30T22:44:12.431Z,102026.72
2022-08-30T22:46:39.870Z,102033.88
2022-08-30T22:49:08.817Z,102039.94
2022-08-30T22:51:36.642Z,102035.06
2022-08-30T22:54:05.419Z,102036.09
2022-08-30T22:56:34.280Z,102039.66
2022-08-30T22:59:01.528Z,102044.50
2022-08-30T23:01:31.605Z,102049.63
2022-08-30T23:04:00.985Z,102052.59
2022-08-30T23:06:28.744Z,102044.34
2022-08-30T23:08:55.787Z,102049.16
2022-08-30T23:11:22.688Z,102050.88
2022-08-30T23:13:49.387Z,102048.75
2022-08-30T23:16:16.851Z,102046.75
2022-08-30T23:18:45.459Z,102050.03
2022-08-30T23:21:15.184Z,102040.44
2022-08-30T23:24:00.611Z,102058.13
2022-08-30T23:26:46.193Z,102049.88
2022-08-30T23:29:32.163Z,102055.00
2022-08-30T23:32:17.945Z,102048.38
2022-08-30T23:35:03.170Z,102065.38
2022-08-30T23:37:48.891Z,102061.84
2022-08-30T23:40:40.272Z,102058.75
2022-08-30T23:43:26.999Z,102065.97
2022-08-30T23:46:19.264Z,102057.41
2022-08-30T23:49:08.875Z,102063.66
2022-08-30T23:51:56.292Z,102059.72
2022-08-30T23:54:42.534Z,102064.25
2022-08-30T23:57:27.815Z,102065.19
